Time;durP1;ratioP1;P1;durP2;ratioP2;P2;SDS_P1;SDS_P2;PMS_P1;PMS_P2;Temp;Humidity;BMP_temperature;BMP_pressure;BME280_temperature;BME280_humidity;BME280_pressure;Samples;Min_cycle;Max_cycle;Signal;HPM_P1;HPM_P2
2022/02/22 00:00:11;;;;;;;1.00;1.00;;;;;;;5.32;53.06;98531.01;107592;1276;109770;-74
2022/02/22 00:02:59;;;;;;;1.00;1.00;;;;;;;5.32;53.08;98538.05;107382;1276;138751;-76
2022/02/22 00:05:27;;;;;;;1.00;1.00;;;;;;;5.34;53.12;98542.90;107562;1276;109089;-75
2022/02/22 00:07:55;;;;;;;0.90;0.90;;;;;;;5.37;52.78;98546.12;107462;1276;139047;-75
2022/02/22 00:10:23;;;;;;;1.00;1.00;;;;;;;5.39;52.70;98549.58;107582;1276;93310;-74
2022/02/22 00:12:51;;;;;;;1.00;1.00;;;;;;;5.44;52.93;98549.78;107601;1276;110285;-74
2022/02/22 00:15:19;;;;;;;1.00;1.00;;;;;;;5.47;52.63;98557.93;107482;1276;139943;-75
2022/02/22 00:17:46;;;;;;;0.90;0.90;;;;;;;5.49;52.77;98556.44;107588;1276;107641;-74
2022/02/22 00:20:16;;;;;;;1.00;1.00;;;;;;;5.53;52.33;98562.81;107452;1275;139038;-73
2022/02/22 00:22:45;;;;;;;0.90;0.90;;;;;;;5.56;52.33;98566.41;107617;1275;93519;-74
2022/02/22 00:25:13;;;;;;;0.90;0.90;;;;;;;5.59;52.27;98571.27;107459;1276;138787;-74
2022/02/22 00:27:44;;;;;;;0.90;0.90;;;;;;;5.59;52.18;98568.08;107598;1276;99511;-74
2022/02/22 00:30:12;;;;;;;0.90;0.90;;;;;;;5.60;52.03;98570.14;107475;1276;107946;-74
2022/02/22 00:32:40;;;;;;;0.90;0.90;;;;;;;5.59;51.72;98566.86;107296;1277;139517;-74
2022/02/22 00:35:09;;;;;;;1.00;1.00;;;;;;;5.63;52.13;98574.98;107581;1276;93539;-74
2022/02/22 00:37:38;;;;;;;0.90;0.90;;;;;;;5.64;51.88;98572.29;107477;1276;138903;-74
2022/02/22 00:40:06;;;;;;;0.90;0.90;;;;;;;5.68;52.16;98575.34;107578;1276;99287;-74
2022/02/22 00:42:34;;;;;;;0.90;0.90;;;;;;;5.72;52.01;98573.62;107606;1276;109154;-74
2022/02/22 00:45:03;;;;;;;0.90;0.90;;;;;;;5.73;52.20;98570.58;107466;1276;139424;-74
2022/02/22 00:47:31;;;;;;;0.90;0.90;;;;;;;5.76;52.32;98569.94;107610;1276;93430;-74
2022/02/22 00:49:59;;;;;;;0.80;0.80;;;;;;;5.74;52.06;98575.63;107468;1276;139003;-74
2022/02/22 00:52:28;;;;;;;0.90;0.90;;;;;;;5.74;52.05;98578.48;107377;1277;97572;-73
2022/02/22 00:54:56;;;;;;;0.90;0.90;;;;;;;5.75;52.34;98582.29;107501;1276;139521;-74
2022/02/22 00:57:24;;;;;;;0.90;0.90;;;;;;;5.79;52.46;98583.91;107597;1276;93554;-73
2022/02/22 00:59:51;;;;;;;0.90;0.90;;;;;;;5.80;52.55;98584.20;107590;1276;93464;-71
2022/02/22 01:02:19;;;;;;;0.90;0.90;;;;;;;5.79;52.47;98586.21;107307;1277;139012;-73
2022/02/22 01:04:47;;;;;;;0.90;0.90;;;;;;;5.77;52.58;98585.56;107607;1276;99605;-73
2022/02/22 01:07:18;;;;;;;0.90;0.90;;;;;;;5.78;52.70;98590.30;107473;1276;141043;-73
2022/02/22 01:09:47;;;;;;;0.90;0.90;;;;;;;5.83;52.79;98597.84;107596;1276;93538;-73
2022/02/22 01:12:16;;;;;;;0.80;0.80;;;;;;;5.84;52.84;98598.67;107394;1277;93780;-74
2022/02/22 01:14:44;;;;;;;0.90;0.90;;;;;;;5.86;52.89;98604.08;107495;1276;139295;-73
2022/02/22 01:17:12;;;;;;;0.90;0.90;;;;;;;5.94;53.17;98610.33;107602;1276;98701;-73
2022/02/22 01:19:40;;;;;;;0.80;0.80;;;;;;;5.97;53.17;98614.26;107518;1276;138498;-73
2022/02/22 01:22:08;;;;;;;0.80;0.80;;;;;;;6.03;53.07;98609.31;107528;1276;93584;-73
2022/02/22 01:24:35;;;;;;;0.80;0.80;;;;;;;6.00;53.05;98612.25;107428;1276;93092;-73
2022/02/22 01:27:04;;;;;;;0.80;0.80;;;;;;;5.96;53.09;98623.64;107484;1276;139829;-73
2022/02/22 01:29:32;;;;;;;0.90;0.90;;;;;;;5.98;53.37;98619.20;107614;1276;99366;-73
2022/02/22 01:32:00;;;;;;;0.80;0.80;;;;;;;6.00;53.41;98627.06;107454;1276;138941;-73
2022/02/22 01:34:28;;;;;;;0.90;0.90;;;;;;;6.00;53.75;98631.09;107592;1276;94052;-73
2022/02/22 01:36:56;;;;;;;0.90;0.90;;;;;;;5.99;54.38;98633.76;107488;1276;138220;-74
2022/02/22 01:39:24;;;;;;;0.90;0.90;;;;;;;5.97;54.99;98636.64;107539;1277;110553;-73
2022/02/22 01:41:52;;;;;;;1.00;1.00;;;;;;;6.00;55.56;98632.69;107442;1277;99374;-73
2022/02/22 01:44:21;;;;;;;0.80;0.80;;;;;;;6.01;56.05;98632.64;107339;1276;139332;-73
2022/02/22 01:46:54;;;;;;;0.90;0.90;;;;;;;6.04;56.48;98632.38;107575;1276;93033;-73
2022/02/22 01:49:22;;;;;;;0.80;0.80;;;;;;;6.04;56.55;98634.14;107519;1276;138936;-73
2022/02/22 01:51:50;;;;;;;0.80;0.80;;;;;;;6.08;56.80;98637.69;107573;1276;109817;-74
2022/02/22 01:54:19;;;;;;;0.80;0.80;;;;;;;6.08;57.30;98644.90;107592;1276;98088;-73
2022/02/22 01:56:48;;;;;;;0.80;0.80;;;;;;;6.01;57.91;98645.69;107456;1276;138953;-73
2022/02/22 01:59:16;;;;;;;0.80;0.80;;;;;;;6.02;58.04;98648.30;107587;1276;93461;-73
2022/02/22 02:01:43;;;;;;;0.90;0.90;;;;;;;6.04;58.14;98642.59;107475;1276;140540;-78
2022/02/22 02:04:12;;;;;;;0.70;0.70;;;;;;;6.04;58.53;98643.83;107688;1276;108664;-78
2022/02/22 02:06:40;;;;;;;0.70;0.70;;;;;;;6.08;58.51;98646.50;107658;1276;100114;-79
2022/02/22 02:09:09;;;;;;;0.90;0.90;;;;;;;6.08;58.62;98642.44;107542;1276;140214;-79
2022/02/22 02:11:48;;;;;;;0.80;0.80;;;;;;;6.05;58.72;98642.73;107654;1276;93463;-78
2022/02/22 02:14:16;;;;;;;0.90;0.90;;;;;;;5.99;59.14;98648.22;107596;1276;138327;-81
2022/02/22 02:16:46;;;;;;;0.80;0.80;;;;;;;6.00;59.10;98639.91;107681;1276;109563;-78
2022/02/22 02:19:17;;;;;;;0.80;0.80;;;;;;;5.98;59.27;98647.02;107584;1276;139829;-80
2022/02/22 02:21:46;;;;;;;0.80;0.80;;;;;;;5.99;59.42;98647.34;107644;1276;108730;-80
2022/02/22 02:24:20;;;;;;;0.80;0.80;;;;;;;5.91;59.60;98656.42;107664;1276;93018;-78
2022/02/22 02:26:50;;;;;;;0.80;0.80;;;;;;;5.78;59.98;98656.33;107607;1276;139384;-79
2022/02/22 02:29:23;;;;;;;0.90;0.90;;;;;;;5.76;60.23;98662.02;107686;1276;109842;-78
2022/02/22 02:31:52;;;;;;;0.80;0.80;;;;;;;5.78;60.25;98664.45;107559;1276;139183;-79
2022/02/22 02:34:26;;;;;;;0.80;0.80;;;;;;;5.80;60.31;98670.36;107678;1276;109141;-79
2022/02/22 02:36:54;;;;;;;0.80;0.80;;;;;;;5.80;60.38;98677.73;107678;1276;93566;-79
2022/02/22 02:39:22;;;;;;;0.80;0.80;;;;;;;5.83;60.23;98685.01;107583;1276;139138;-77
2022/02/22 02:41:51;;;;;;;0.90;0.90;;;;;;;5.82;60.68;98691.75;107640;1276;109861;-80
2022/02/22 02:44:22;;;;;;;0.70;0.70;;;;;;;5.83;60.62;98695.59;107604;1276;139211;-79
2022/02/22 02:46:50;;;;;;;0.70;0.70;;;;;;;5.85;60.62;98692.52;107693;1276;109171;-79
2022/02/22 02:49:18;;;;;;;0.70;0.70;;;;;;;5.87;60.43;98695.65;107596;1276;139932;-79
2022/02/22 02:51:46;;;;;;;0.80;0.80;;;;;;;5.86;60.53;98693.57;107691;1276;93832;-79
2022/02/22 02:54:14;;;;;;;0.90;0.90;;;;;;;5.84;60.58;98696.44;107691;1276;109694;-77
2022/02/22 02:56:42;;;;;;;0.80;0.80;;;;;;;5.87;60.57;98696.88;107582;1276;139435;-79
2022/02/22 02:59:11;;;;;;;0.80;0.80;;;;;;;5.85;60.49;98702.92;107680;1276;108792;-79
2022/02/22 03:01:43;;;;;;;0.80;0.80;;;;;;;5.87;60.57;98709.04;107577;1277;139250;-79
2022/02/22 03:04:12;;;;;;;0.80;0.80;;;;;;;5.88;60.59;98709.02;107680;1276;93242;-79
2022/02/22 03:06:40;;;;;;;0.70;0.70;;;;;;;5.89;60.66;98718.31;107712;1276;108755;-80
2022/02/22 03:09:08;;;;;;;0.80;0.80;;;;;;;5.85;60.60;98723.19;107609;1276;140236;-80
2022/02/22 03:11:36;;;;;;;0.80;0.80;;;;;;;5.84;60.54;98725.52;107786;1276;108277;-80
2022/02/22 03:14:06;;;;;;;0.80;0.80;;;;;;;5.88;60.65;98728.55;107628;1276;138038;-78
2022/02/22 03:16:34;;;;;;;0.80;0.80;;;;;;;5.90;61.01;98734.11;107751;1276;92990;-79
2022/02/22 03:19:04;;;;;;;0.80;0.80;;;;;;;5.81;61.56;98740.21;107584;1276;139495;-78
2022/02/22 03:21:34;;;;;;;0.80;0.80;;;;;;;5.73;62.30;98745.77;107706;1276;97060;-79
2022/02/22 03:24:02;;;;;;;0.80;0.80;;;;;;;5.71;62.64;98748.50;107652;1276;108180;-78
2022/02/22 03:26:30;;;;;;;0.80;0.80;;;;;;;5.72;62.78;98754.77;107593;1275;139884;-80
2022/02/22 03:29:01;;;;;;;0.70;0.70;;;;;;;5.71;63.13;98756.77;107668;1276;93352;-78
2022/02/22 03:31:29;;;;;;;0.80;0.80;;;;;;;5.63;63.64;98758.96;107633;1276;139221;-80
2022/02/22 03:33:58;;;;;;;0.80;0.80;;;;;;;5.60;63.49;98754.48;107757;1276;99584;-78
2022/02/22 03:36:26;;;;;;;0.70;0.70;;;;;;;5.62;63.68;98762.85;107818;1276;107736;-78
2022/02/22 03:38:54;;;;;;;0.70;0.70;;;;;;;5.58;63.86;98770.39;107654;1276;138804;-78
2022/02/22 03:41:23;;;;;;;0.80;0.80;;;;;;;5.51;63.83;98767.98;107481;1276;301635;-79
2022/02/22 03:43:51;;;;;;;0.80;0.80;;;;;;;5.48;64.12;98768.94;107525;1276;139469;-78
2022/02/22 03:46:19;;;;;;;0.80;0.80;;;;;;;5.43;63.89;98767.35;107702;1276;99829;-79
2022/02/22 03:48:47;;;;;;;0.90;0.90;;;;;;;5.40;64.10;98769.02;107670;1277;108424;-78
2022/02/22 03:51:15;;;;;;;0.80;0.80;;;;;;;5.36;63.93;98775.13;107579;1277;140652;-79
2022/02/22 03:53:42;;;;;;;0.90;0.90;;;;;;;5.32;64.08;98776.48;107709;1276;93542;-79
2022/02/22 03:56:10;;;;;;;0.80;0.80;;;;;;;5.30;63.57;98779.88;107561;1276;141348;-79
2022/02/22 03:58:38;;;;;;;0.70;0.70;;;;;;;5.35;63.41;98788.35;107733;1276;99604;-78
2022/02/22 04:01:06;;;;;;;0.90;0.90;;;;;;;5.39;63.30;98791.94;107601;1276;139351;-77
2022/02/22 04:03:34;;;;;;;0.80;0.80;;;;;;;5.42;63.11;98794.83;107689;1276;93101;-78
2022/02/22 04:06:01;;;;;;;0.80;0.80;;;;;;;5.44;62.69;98798.63;107699;1276;92988;-79
2022/02/22 04:08:29;;;;;;;0.70;0.70;;;;;;;5.46;62.45;98802.95;107569;1277;139155;-79
2022/02/22 04:10:57;;;;;;;0.80;0.80;;;;;;;5.46;62.34;98808.61;107691;1277;98338;-78
2022/02/22 04:13:25;;;;;;;0.90;0.90;;;;;;;5.45;62.21;98813.92;107574;1277;139407;-78
2022/02/22 04:15:52;;;;;;;0.90;0.90;;;;;;;5.44;62.16;98816.58;107682;1276;93480;-78
2022/02/22 04:18:20;;;;;;;0.80;0.80;;;;;;;5.41;62.00;98821.45;107697;1277;93748;-78
2022/02/22 04:20:48;;;;;;;0.80;0.80;;;;;;;5.39;61.90;98824.67;107534;1276;140032;-79
2022/02/22 04:23:15;;;;;;;0.80;0.80;;;;;;;5.44;62.02;98819.40;107695;1276;98425;-80
2022/02/22 04:25:44;;;;;;;0.90;0.90;;;;;;;5.45;61.82;98822.89;107536;1276;138939;-78
2022/02/22 04:28:12;;;;;;;0.90;0.90;;;;;;;5.43;62.01;98826.48;107666;1276;93474;-79
2022/02/22 04:30:39;;;;;;;0.80;0.80;;;;;;;5.39;62.24;98828.39;107704;1276;93561;-79
2022/02/22 04:33:07;;;;;;;0.80;0.80;;;;;;;5.40;62.14;98833.09;107563;1277;139485;-80
2022/02/22 04:35:36;;;;;;;0.80;0.80;;;;;;;5.42;62.13;98832.83;107666;1276;98944;-78
2022/02/22 04:38:03;;;;;;;0.80;0.80;;;;;;;5.45;62.17;98839.28;107559;1277;138914;-79
2022/02/22 04:40:31;;;;;;;0.80;0.80;;;;;;;5.47;62.06;98840.09;107693;1277;93356;-78
2022/02/22 04:42:59;;;;;;;0.80;0.80;;;;;;;5.49;62.21;98846.02;107638;1277;94181;-78
2022/02/22 04:45:26;;;;;;;0.80;0.80;;;;;;;5.54;61.90;98847.80;107549;1276;139191;-78
2022/02/22 04:47:56;;;;;;;0.70;0.70;;;;;;;5.56;62.06;98849.66;107705;1276;98378;-79
2022/02/22 04:50:24;;;;;;;0.80;0.80;;;;;;;5.58;61.86;98851.20;107515;1277;138902;-79
2022/02/22 04:52:51;;;;;;;0.90;0.90;;;;;;;5.57;62.04;98855.63;107719;1276;94075;-78
2022/02/22 04:55:20;;;;;;;0.80;0.80;;;;;;;5.58;62.23;98862.65;107576;1276;140932;-78
2022/02/22 04:57:47;;;;;;;0.80;0.80;;;;;;;5.61;62.16;98862.90;107686;1276;109908;-79
2022/02/22 05:00:16;;;;;;;0.80;0.80;;;;;;;5.63;61.85;98865.65;107687;1276;97234;-79
2022/02/22 05:02:43;;;;;;;0.80;0.80;;;;;;;5.64;61.94;98870.20;107535;1277;139571;-78
2022/02/22 05:05:11;;;;;;;0.80;0.80;;;;;;;5.59;61.92;98872.30;107629;1276;93391;-77
2022/02/22 05:07:39;;;;;;;0.80;0.80;;;;;;;5.54;62.49;98875.27;107562;1276;139964;-79
2022/02/22 05:10:07;;;;;;;0.80;0.80;;;;;;;5.62;62.42;98877.50;107653;1276;108625;-79
2022/02/22 05:12:35;;;;;;;0.80;0.80;;;;;;;5.64;62.45;98884.27;107669;1277;99031;-79
2022/02/22 05:15:04;;;;;;;0.70;0.70;;;;;;;5.63;62.24;98882.37;107511;1277;138465;-78
2022/02/22 05:17:32;;;;;;;0.80;0.80;;;;;;;5.67;62.37;98894.24;107669;1276;93267;-79
2022/02/22 05:20:00;;;;;;;0.80;0.80;;;;;;;5.69;62.19;98902.80;107535;1276;138213;-79
2022/02/22 05:22:28;;;;;;;0.80;0.80;;;;;;;5.73;62.24;98903.91;107645;1276;109033;-79
2022/02/22 05:24:55;;;;;;;0.80;0.80;;;;;;;5.78;62.24;98909.58;107674;1276;99297;-79
2022/02/22 05:27:23;;;;;;;0.80;0.80;;;;;;;5.74;62.15;98911.64;107573;1276;140519;-79
2022/02/22 05:29:51;;;;;;;0.90;0.90;;;;;;;5.74;62.25;98917.44;107623;1277;94239;-79
2022/02/22 05:32:18;;;;;;;0.80;0.80;;;;;;;5.80;62.23;98925.02;107553;1277;139391;-80
2022/02/22 05:34:46;;;;;;;0.80;0.80;;;;;;;5.83;62.21;98928.06;107635;1276;110128;-79
2022/02/22 05:37:14;;;;;;;0.90;0.90;;;;;;;5.87;62.29;98928.66;107549;1276;138109;-78
2022/02/22 05:39:42;;;;;;;0.80;0.80;;;;;;;5.85;62.15;98934.73;107590;1276;107860;-78
2022/02/22 05:42:10;;;;;;;0.80;0.80;;;;;;;5.79;62.02;98937.02;107620;1276;93593;-78
2022/02/22 05:44:38;;;;;;;0.70;0.70;;;;;;;5.74;62.18;98942.98;107471;1277;140718;-78
2022/02/22 05:47:06;;;;;;;0.80;0.80;;;;;;;5.75;62.59;98949.98;107633;1276;110052;-79
2022/02/22 05:49:33;;;;;;;0.80;0.80;;;;;;;5.74;62.67;98957.05;107534;1276;139997;-78
2022/02/22 05:52:01;;;;;;;1.00;1.00;;;;;;;5.68;62.55;98963.23;107627;1276;108793;-80
2022/02/22 05:54:29;;;;;;;0.70;0.70;;;;;;;5.71;62.83;98966.31;107660;1275;93736;-79
2022/02/22 05:56:57;;;;;;;0.70;0.70;;;;;;;5.76;62.78;98973.91;107496;1276;141764;-78
2022/02/22 05:59:25;;;;;;;0.80;0.80;;;;;;;5.83;62.52;98983.23;107668;1277;108755;-79
2022/02/22 06:01:52;;;;;;;0.80;0.80;;;;;;;5.78;62.49;98988.46;107563;1276;138898;-78
2022/02/22 06:04:22;;;;;;;0.80;0.80;;;;;;;5.74;62.80;98993.15;107673;1276;109324;-79
2022/02/22 06:06:50;;;;;;;0.80;0.80;;;;;;;5.74;62.92;98998.98;107636;1276;93197;-79
2022/02/22 06:09:18;;;;;;;0.80;0.80;;;;;;;5.77;62.88;98998.36;107566;1276;139192;-78
2022/02/22 06:11:45;;;;;;;0.80;0.80;;;;;;;5.80;62.86;99007.08;107627;1276;109985;-79
2022/02/22 06:14:13;;;;;;;0.80;0.80;;;;;;;5.81;62.69;99010.05;107571;1275;142072;-79
2022/02/22 06:16:41;;;;;;;0.80;0.80;;;;;;;5.84;62.79;99014.19;107613;1276;108070;-79
2022/02/22 06:19:09;;;;;;;0.80;0.80;;;;;;;5.91;62.59;99019.46;107563;1276;139600;-78
2022/02/22 06:21:37;;;;;;;0.80;0.80;;;;;;;5.91;62.43;99025.42;107665;1276;93441;-79
2022/02/22 06:24:05;;;;;;;0.90;0.90;;;;;;;5.91;62.58;99027.17;107643;1276;109733;-79
2022/02/22 06:26:33;;;;;;;0.80;0.80;;;;;;;5.86;62.70;99028.04;107524;1276;139520;-78
2022/02/22 06:29:00;;;;;;;0.80;0.80;;;;;;;5.83;62.98;99033.92;107604;1276;108886;-78
2022/02/22 06:31:28;;;;;;;0.80;0.80;;;;;;;5.84;63.17;99036.02;107601;1276;138648;-79
2022/02/22 06:33:56;;;;;;;0.70;0.70;;;;;;;5.86;63.14;99034.37;107657;1276;93468;-78
2022/02/22 06:36:24;;;;;;;0.80;0.80;;;;;;;5.86;63.35;99047.94;107667;1276;108662;-78
2022/02/22 06:38:52;;;;;;;0.70;0.70;;;;;;;5.86;63.21;99043.55;107565;1276;143307;-79
2022/02/22 06:41:20;;;;;;;0.80;0.80;;;;;;;5.87;63.10;99050.21;107670;1276;105777;-78
2022/02/22 06:43:48;;;;;;;0.60;0.60;;;;;;;5.89;63.18;99054.91;107543;1276;139921;-78
2022/02/22 06:46:15;;;;;;;0.70;0.70;;;;;;;5.87;63.26;99060.41;107758;1276;93360;-79
2022/02/22 06:48:43;;;;;;;0.80;0.80;;;;;;;5.91;63.28;99066.46;107662;1276;109958;-78
2022/02/22 06:51:11;;;;;;;0.70;0.70;;;;;;;5.93;63.26;99068.02;107480;1276;139965;-79
2022/02/22 06:53:39;;;;;;;0.70;0.70;;;;;;;5.92;63.22;99074.02;107622;1276;108963;-78
2022/02/22 06:56:07;;;;;;;0.70;0.70;;;;;;;5.90;62.98;99082.37;107500;1276;139155;-78
2022/02/22 06:58:41;;;;;;;0.70;0.70;;;;;;;5.85;63.17;99085.48;107667;1275;93103;-78
2022/02/22 07:01:09;;;;;;;0.80;0.80;;;;;;;5.89;63.35;99088.90;107499;1276;139604;-79
2022/02/22 07:03:36;;;;;;;0.70;0.70;;;;;;;5.93;63.27;99088.44;107600;1276;99291;-79
2022/02/22 07:06:04;;;;;;;0.70;0.70;;;;;;;5.92;63.43;99096.91;107619;1276;107818;-78
2022/02/22 07:08:33;;;;;;;0.80;0.80;;;;;;;5.99;63.12;99101.33;107507;1276;140569;-77
2022/02/22 07:11:01;;;;;;;0.70;0.70;;;;;;;6.02;63.00;99110.59;107603;1276;93312;-78
2022/02/22 07:13:29;;;;;;;0.80;0.80;;;;;;;6.03;63.13;99114.08;107487;1276;139189;-78
2022/02/22 07:15:57;;;;;;;0.70;0.70;;;;;;;6.11;63.12;99109.27;107597;1276;99801;-78
2022/02/22 07:18:24;;;;;;;0.70;0.70;;;;;;;6.14;62.96;99112.71;107655;1276;109029;-77
2022/02/22 07:20:52;;;;;;;0.70;0.70;;;;;;;6.17;62.82;99111.76;107464;1276;138878;-77
2022/02/22 07:23:20;;;;;;;0.80;0.80;;;;;;;6.15;62.96;99119.02;107626;1276;93072;-78
2022/02/22 07:25:47;;;;;;;0.80;0.80;;;;;;;6.16;63.06;99126.92;107485;1276;139981;-77
2022/02/22 07:28:15;;;;;;;0.70;0.70;;;;;;;6.13;62.79;99132.47;107639;1276;99322;-78
2022/02/22 07:30:44;;;;;;;0.70;0.70;;;;;;;6.12;62.82;99141.84;107615;1276;108765;-78
2022/02/22 07:33:12;;;;;;;0.70;0.70;;;;;;;6.15;62.70;99149.33;107477;1276;139095;-79
2022/02/22 07:35:40;;;;;;;0.70;0.70;;;;;;;6.16;62.75;99155.82;107576;1276;93073;-78
2022/02/22 07:38:08;;;;;;;0.80;0.80;;;;;;;6.19;62.48;99162.96;107477;1276;140148;-77
2022/02/22 07:40:36;;;;;;;0.80;0.80;;;;;;;6.14;62.65;99159.92;107578;1276;98491;-79
2022/02/22 07:43:04;;;;;;;0.80;0.80;;;;;;;6.22;63.41;99166.77;107616;1276;109307;-78
2022/02/22 07:45:32;;;;;;;0.80;0.80;;;;;;;6.28;63.64;99175.23;107487;1276;138861;-78
2022/02/22 07:48:02;;;;;;;0.80;0.80;;;;;;;6.33;63.67;99174.20;107638;1276;93322;-78
2022/02/22 07:50:29;;;;;;;0.80;0.80;;;;;;;6.29;63.42;99177.66;107489;1276;139255;-78
2022/02/22 07:52:57;;;;;;;0.70;0.70;;;;;;;6.22;63.79;99179.98;107623;1276;98651;-77
2022/02/22 07:55:25;;;;;;;0.80;0.80;;;;;;;6.16;64.01;99182.27;107422;1276;139080;-78
2022/02/22 07:57:52;;;;;;;0.70;0.70;;;;;;;6.17;63.68;99192.81;107612;1276;93486;-78
2022/02/22 08:00:20;;;;;;;0.70;0.70;;;;;;;6.10;63.07;99201.11;107703;1276;93133;-78
2022/02/22 08:02:54;;;;;;;0.70;0.70;;;;;;;6.07;62.99;99204.89;107719;1276;137434;-79
2022/02/22 08:05:23;;;;;;;0.70;0.70;;;;;;;6.09;63.50;99208.73;107747;1276;97472;-78
2022/02/22 08:07:51;;;;;;;0.70;0.70;;;;;;;6.14;63.46;99216.50;107565;1274;139441;-78
2022/02/22 08:10:24;;;;;;;0.70;0.70;;;;;;;6.19;63.02;99227.65;107623;1275;93579;-78
2022/02/22 08:12:52;;;;;;;0.80;0.80;;;;;;;6.22;63.02;99224.41;107641;1276;93478;-79
2022/02/22 08:15:20;;;;;;;0.70;0.70;;;;;;;6.25;62.68;99230.13;107524;1276;138705;-79
2022/02/22 08:17:48;;;;;;;0.70;0.70;;;;;;;6.31;63.08;99234.38;107668;1276;99816;-79
2022/02/22 08:20:16;;;;;;;0.70;0.70;;;;;;;6.41;62.48;99238.69;107524;1276;139951;-79
2022/02/22 08:22:44;;;;;;;0.70;0.70;;;;;;;6.44;62.08;99239.33;107631;1276;94506;-79
2022/02/22 08:25:11;;;;;;;0.70;0.70;;;;;;;6.42;61.84;99244.65;107535;1276;138626;-77
2022/02/22 08:27:39;;;;;;;0.70;0.70;;;;;;;6.33;61.74;99247.38;107649;1276;109718;-78
2022/02/22 08:30:07;;;;;;;0.70;0.70;;;;;;;6.30;62.14;99251.69;107634;1276;98380;-77
2022/02/22 08:32:35;;;;;;;0.70;0.70;;;;;;;6.30;61.93;99266.15;107473;1276;140877;-79
2022/02/22 08:35:04;;;;;;;0.70;0.70;;;;;;;6.24;62.00;99268.58;107644;1276;93589;-78
2022/02/22 08:37:32;;;;;;;0.70;0.70;;;;;;;6.28;62.26;99267.61;107554;1276;137643;-78
2022/02/22 08:40:01;;;;;;;0.70;0.70;;;;;;;6.31;62.19;99277.58;107689;1276;108752;-78
2022/02/22 08:42:29;;;;;;;0.90;0.90;;;;;;;6.36;61.94;99279.34;107636;1276;99333;-78
2022/02/22 08:45:17;;;;;;;0.70;0.70;;;;;;;6.43;61.71;99286.60;107545;1276;138233;-79
2022/02/22 08:47:45;;;;;;;0.60;0.60;;;;;;;6.43;61.80;99297.18;107622;1276;93468;-79
2022/02/22 08:50:13;;;;;;;0.60;0.60;;;;;;;6.41;61.40;99296.70;107577;1276;139429;-79
2022/02/22 08:52:41;;;;;;;0.70;0.70;;;;;;;6.43;61.41;99302.64;107623;1275;109645;-79
2022/02/22 08:55:09;;;;;;;0.80;0.80;;;;;;;6.43;61.15;99310.75;107689;1276;100105;-79
2022/02/22 08:57:36;;;;;;;0.70;0.70;;;;;;;6.42;61.10;99314.30;107597;1276;139908;-79
2022/02/22 09:00:09;;;;;;;0.80;0.80;;;;;;;6.50;61.47;99319.02;107619;1276;93364;-78
2022/02/22 09:02:39;;;;;;;0.80;0.80;;;;;;;6.58;61.22;99321.98;107570;1276;137323;-78
2022/02/22 09:05:09;;;;;;;0.70;0.70;;;;;;;6.56;60.57;99323.79;107657;1276;109721;-80
2022/02/22 09:07:37;;;;;;;0.70;0.70;;;;;;;6.52;60.48;99325.67;107566;1276;138837;-79
2022/02/22 09:10:07;;;;;;;0.60;0.60;;;;;;;6.46;60.11;99327.59;107661;1276;109952;-79
2022/02/22 09:12:35;;;;;;;0.70;0.70;;;;;;;6.54;60.41;99335.14;107683;1276;93356;-79
2022/02/22 09:15:07;;;;;;;0.60;0.60;;;;;;;6.61;60.21;99341.48;107581;1276;138319;-79
2022/02/22 09:17:36;;;;;;;0.80;0.80;;;;;;;6.68;60.78;99341.10;107696;1275;109838;-78
2022/02/22 09:20:05;;;;;;;0.60;0.60;;;;;;;6.78;60.17;99345.25;107578;1276;137146;-78
2022/02/22 09:22:33;;;;;;;0.70;0.70;;;;;;;6.85;60.02;99343.45;107681;1274;109035;-79
2022/02/22 09:25:03;;;;;;;0.70;0.70;;;;;;;6.88;59.98;99344.98;107693;1276;93417;-79
2022/02/22 09:27:31;;;;;;;0.60;0.60;;;;;;;6.92;59.70;99349.80;107593;1276;138458;-79
2022/02/22 09:29:58;;;;;;;0.70;0.70;;;;;;;6.97;59.63;99352.13;107727;1276;109882;-78
2022/02/22 09:32:27;;;;;;;0.70;0.70;;;;;;;7.00;59.39;99359.96;107589;1276;140664;-79
2022/02/22 09:34:55;;;;;;;0.70;0.70;;;;;;;7.05;58.93;99364.60;107650;1276;107810;-80
2022/02/22 09:37:23;;;;;;;0.60;0.60;;;;;;;7.32;57.92;99367.16;107580;1274;140416;-79
2022/02/22 09:39:51;;;;;;;0.60;0.60;;;;;;;7.53;57.12;99374.67;107701;1276;93053;-79
2022/02/22 09:42:19;;;;;;;0.60;0.60;;;;;;;7.57;56.41;99369.77;107660;1276;108057;-79
2022/02/22 09:44:47;;;;;;;0.60;0.60;;;;;;;7.79;54.82;99372.82;107570;1276;139035;-78
2022/02/22 09:47:16;;;;;;;0.60;0.60;;;;;;;7.72;53.68;99371.27;107645;1276;107553;-78
2022/02/22 09:49:44;;;;;;;0.80;0.80;;;;;;;7.69;52.51;99380.35;107527;1276;137311;-79
2022/02/22 09:52:14;;;;;;;0.70;0.70;;;;;;;7.80;54.30;99380.02;107663;1276;93108;-79
2022/02/22 09:54:42;;;;;;;0.60;0.60;;;;;;;8.28;54.85;99388.56;107655;1276;109706;-79
2022/02/22 09:57:09;;;;;;;0.60;0.60;;;;;;;8.41;54.71;99387.96;107511;1276;137934;-79
2022/02/22 09:59:38;;;;;;;0.50;0.50;;;;;;;8.94;54.23;99392.54;107543;1276;108899;-79
2022/02/22 10:02:08;;;;;;;0.60;0.60;;;;;;;9.59;53.22;99395.43;107530;1276;138091;-79
2022/02/22 10:04:43;;;;;;;0.50;0.40;;;;;;;11.93;49.28;99390.45;107657;1276;93306;-80
2022/02/22 10:07:12;;;;;;;0.50;0.50;;;;;;;12.69;44.81;99391.13;107608;1274;109741;-78
2022/02/22 10:09:59;;;;;;;0.40;0.30;;;;;;;12.69;43.57;99398.64;107558;1276;139965;-79
2022/02/22 10:12:28;;;;;;;0.40;0.30;;;;;;;12.21;44.72;99399.04;107646;1276;109333;-79
2022/02/22 10:14:57;;;;;;;0.40;0.20;;;;;;;13.15;41.86;99405.84;107541;1276;139277;-79
2022/02/22 10:17:25;;;;;;;0.40;0.30;;;;;;;12.55;42.65;99418.39;107666;1276;93647;-78
2022/02/22 10:20:03;;;;;;;0.40;0.30;;;;;;;11.91;43.70;99423.04;107555;1276;137972;-79
2022/02/22 10:22:32;;;;;;;0.40;0.30;;;;;;;11.74;43.12;99427.58;107663;1276;99056;-78
2022/02/22 10:25:08;;;;;;;0.40;0.30;;;;;;;11.73;43.46;99432.75;107589;1276;109328;-78
2022/02/22 10:27:41;;;;;;;0.40;0.30;;;;;;;11.30;44.07;99434.73;107505;1276;139681;-79
2022/02/22 10:30:41;;;;;;;0.40;0.30;;;;;;;10.87;45.52;99435.89;107635;1276;93451;-78
2022/02/22 10:33:24;;;;;;;0.40;0.30;;;;;;;10.49;45.93;99438.17;107502;1276;138632;-77
2022/02/22 10:36:04;;;;;;;0.40;0.40;;;;;;;10.22;46.37;99442.77;107609;1276;98310;-77
2022/02/22 10:38:34;;;;;;;0.50;0.40;;;;;;;9.85;46.91;99444.80;107508;1276;139209;-79
2022/02/22 10:41:03;;;;;;;0.50;0.40;;;;;;;9.70;47.61;99445.54;107647;1276;93330;-80
2022/02/22 10:43:36;;;;;;;0.50;0.40;;;;;;;9.56;48.13;99445.89;107533;1276;139849;-79
2022/02/22 10:46:06;;;;;;;0.40;0.40;;;;;;;9.50;48.69;99450.54;107659;1276;109923;-79
2022/02/22 10:48:38;;;;;;;0.50;0.50;;;;;;;9.45;48.53;99451.79;107639;1276;98693;-79
2022/02/22 10:51:11;;;;;;;0.50;0.50;;;;;;;9.39;48.79;99448.64;107454;1276;138533;-79
2022/02/22 10:53:46;;;;;;;0.50;0.50;;;;;;;9.37;49.14;99448.70;107613;1276;93126;-79
2022/02/22 10:56:16;;;;;;;0.50;0.50;;;;;;;9.27;48.50;99445.88;107539;1276;138904;-79
2022/02/22 10:58:45;;;;;;;0.50;0.50;;;;;;;9.08;48.32;99447.96;107617;1276;108791;-78
2022/02/22 11:01:23;;;;;;;0.60;0.60;;;;;;;9.00;48.37;99452.67;107574;1276;98751;-79
2022/02/22 11:03:52;;;;;;;0.60;0.60;;;;;;;8.92;48.67;99463.06;107503;1276;139358;-78
2022/02/22 11:06:21;;;;;;;0.50;0.50;;;;;;;8.90;48.37;99466.52;107600;1276;93593;-78
2022/02/22 11:08:51;;;;;;;0.60;0.60;;;;;;;8.83;48.53;99467.26;107567;1276;139491;-78
2022/02/22 11:11:41;;;;;;;0.60;0.60;;;;;;;8.83;49.07;99472.04;107622;1276;109780;-78
2022/02/22 11:14:26;;;;;;;0.50;0.50;;;;;;;8.79;49.57;99475.01;107433;1277;138048;-79
2022/02/22 11:16:59;;;;;;;0.60;0.60;;;;;;;8.75;49.55;99475.14;107591;1274;107942;-79
2022/02/22 11:19:36;;;;;;;0.60;0.60;;;;;;;8.70;48.88;99479.19;107669;1276;93785;-79
2022/02/22 11:22:16;;;;;;;0.60;0.60;;;;;;;8.64;48.70;99477.42;107562;1276;138763;-79
2022/02/22 11:24:46;;;;;;;0.50;0.50;;;;;;;8.66;49.26;99479.88;107693;1276;108707;-79
2022/02/22 11:27:32;;;;;;;0.60;0.60;;;;;;;8.73;49.11;99483.17;107573;1276;139144;-78
2022/02/22 11:30:06;;;;;;;0.60;0.60;;;;;;;8.72;48.19;99486.91;107670;1276;108040;-79
2022/02/22 11:32:53;;;;;;;0.60;0.60;;;;;;;8.83;47.74;99487.77;107512;1276;139505;-79
2022/02/22 11:35:21;;;;;;;0.60;0.60;;;;;;;8.91;46.14;99482.23;107495;1277;93259;-80